createdAt,value
2018-02-24T00:01:16.069Z,102124.33
2018-02-24T00:03:44.459Z,102127.97
2018-02-24T00:06:12.841Z,102123.14
2018-02-24T00:08:41.209Z,102122.42
2018-02-24T00:11:09.623Z,102128.31
2018-02-24T00:13:38.086Z,102127.50
2018-02-24T00:16:06.544Z,102121.41
2018-02-24T00:18:34.925Z,102115.52
2018-02-24T00:21:03.304Z,102125.22
2018-02-24T00:23:31.825Z,102121.42
2018-02-24T00:26:00.603Z,102122.70
2018-02-24T00:28:29.413Z,102116.83
2018-02-24T00:30:57.771Z,102116.33
2018-02-24T00:33:26.147Z,102117.25
2018-02-24T00:35:54.512Z,102118.88
2018-02-24T00:38:22.876Z,102121.30
2018-02-24T00:40:51.245Z,102117.56
2018-02-24T00:43:19.772Z,102119.59
2018-02-24T00:45:48.546Z,102116.05
2018-02-24T00:48:16.929Z,102119.40
2018-02-24T00:50:45.293Z,102117.72
2018-02-24T00:53:13.673Z,102107.86
2018-02-24T00:55:42.047Z,102108.42
2018-02-24T00:58:10.427Z,102110.91
2018-02-24T01:00:38.796Z,102097.63
2018-02-24T01:03:07.156Z,102095.13
2018-02-24T01:05:35.592Z,102091.75
2018-02-24T01:08:03.939Z,102093.72
2018-02-24T01:10:32.307Z,102099.55
2018-02-24T01:13:00.688Z,102088.95
2018-02-24T01:15:29.052Z,102081.92
2018-02-24T01:17:57.428Z,102085.99
2018-02-24T01:20:25.776Z,102079.53
2018-02-24T01:22:54.544Z,102085.62
2018-02-24T01:25:22.909Z,102088.89
2018-02-24T01:27:51.392Z,102087.73
2018-02-24T01:30:19.761Z,102085.08
2018-02-24T01:32:48.172Z,102085.15
2018-02-24T01:35:16.934Z,102086.59
2018-02-24T01:37:45.313Z,102083.12
2018-02-24T01:40:13.698Z,102088.56
2018-02-24T01:42:42.155Z,102094.14
2018-02-24T01:45:10.550Z,102096.48
2018-02-24T01:47:38.914Z,102090.51
2018-02-24T01:50:07.280Z,102092.26
2018-02-24T01:52:35.650Z,102089.28
2018-02-24T01:55:04.030Z,102095.00
2018-02-24T01:57:32.439Z,102084.91
2018-02-24T02:00:00.817Z,102082.36
2018-02-24T02:02:29.203Z,102083.14
2018-02-24T02:04:57.684Z,102078.47
2018-02-24T02:07:26.064Z,102083.18
2018-02-24T02:09:54.441Z,102082.13
2018-02-24T02:12:23.416Z,102084.46
2018-02-24T02:14:51.813Z,102081.80
2018-02-24T02:17:20.176Z,102082.11
2018-02-24T02:19:48.537Z,102083.77
2018-02-24T02:22:16.946Z,102082.80
2018-02-24T02:24:45.311Z,102085.28
2018-02-24T02:27:13.688Z,102088.28
2018-02-24T02:29:42.068Z,102086.86
2018-02-24T02:32:10.444Z,102081.23
2018-02-24T02:34:38.803Z,102090.81
2018-02-24T02:37:07.177Z,102083.08
2018-02-24T02:39:35.602Z,102092.80
2018-02-24T02:42:03.985Z,102112.23
2018-02-24T02:44:32.349Z,102095.62
2018-02-24T02:47:00.739Z,102102.25
2018-02-24T02:49:29.125Z,102101.15
2018-02-24T02:51:57.500Z,102106.42
2018-02-24T02:54:25.876Z,102103.81
2018-02-24T02:56:54.267Z,102105.18
2018-02-24T02:59:22.625Z,102106.02
2018-02-24T03:01:51.026Z,102102.70
2018-02-24T03:04:19.452Z,102100.24
2018-02-24T03:06:47.853Z,102096.12
2018-02-24T03:09:16.224Z,102109.48
2018-02-24T03:11:44.599Z,102107.86
2018-02-24T03:14:12.959Z,102115.02
2018-02-24T03:16:41.344Z,102100.73
2018-02-24T03:19:09.720Z,102099.11
2018-02-24T03:21:38.136Z,102099.71
2018-02-24T03:24:06.521Z,102097.86
2018-02-24T03:26:34.904Z,102111.52
2018-02-24T03:29:03.293Z,102102.61
2018-02-24T03:31:31.684Z,102102.66
2018-02-24T03:34:00.460Z,102109.45
2018-02-24T03:36:28.851Z,102103.78
2018-02-24T03:38:57.603Z,102103.89
2018-02-24T03:41:25.964Z,102104.39
2018-02-24T03:43:54.344Z,102096.41
2018-02-24T03:46:31.594Z,102106.20
2018-02-24T03:49:00.352Z,102100.39
2018-02-24T03:51:28.889Z,102107.03
2018-02-24T03:53:57.256Z,102106.47
2018-02-24T03:56:25.636Z,102110.83
2018-02-24T03:58:53.992Z,102120.36
2018-02-24T04:01:22.756Z,102111.37
2018-02-24T04:03:51.157Z,102106.69
2018-02-24T04:06:19.937Z,102105.31
2018-02-24T04:08:48.712Z,102112.83
2018-02-24T04:11:17.088Z,102124.65
2018-02-24T04:13:45.449Z,102122.91
2018-02-24T04:16:13.827Z,102122.77
2018-02-24T04:19:00.470Z,102127.55
2018-02-24T04:21:29.241Z,102127.23
2018-02-24T04:23:57.607Z,102130.12
2018-02-24T04:26:26.012Z,102132.25
2018-02-24T04:28:54.388Z,102134.78
2018-02-24T04:31:22.997Z,102134.92
2018-02-24T04:33:51.849Z,102138.44
2018-02-24T04:36:20.222Z,102132.31
2018-02-24T04:38:48.589Z,102140.73
2018-02-24T04:41:16.951Z,102140.83
2018-02-24T04:43:45.322Z,102138.06
2018-02-24T04:46:13.696Z,102134.91
2018-02-24T04:48:42.065Z,102148.45
2018-02-24T04:51:10.483Z,102150.56
2018-02-24T04:53:38.848Z,102144.39
2018-02-24T04:56:07.242Z,102157.05
2018-02-24T04:58:35.621Z,102162.55
2018-02-24T05:01:04.004Z,102162.91
2018-02-24T05:03:32.377Z,102169.00
2018-02-24T05:06:00.753Z,102173.36
2018-02-24T05:08:29.116Z,102169.86
2018-02-24T05:10:57.496Z,102164.22
2018-02-24T05:13:25.885Z,102178.47
2018-02-24T05:15:54.249Z,102179.47
2018-02-24T05:18:22.650Z,102173.91
2018-02-24T05:20:51.034Z,102174.66
2018-02-24T05:23:19.432Z,102193.19
2018-02-24T05:25:47.907Z,102189.81
2018-02-24T05:28:16.265Z,102183.86
2018-02-24T05:30:44.641Z,102188.07
2018-02-24T05:33:13.019Z,102183.83
2018-02-24T05:35:41.936Z,102175.00
2018-02-24T05:38:10.296Z,102192.02
2018-02-24T05:40:38.696Z,102184.61
2018-02-24T05:43:07.087Z,102185.53
2018-02-24T05:45:35.456Z,102186.05
2018-02-24T05:48:03.822Z,102176.03
2018-02-24T05:50:32.201Z,102180.11
2018-02-24T05:53:00.565Z,102184.41
2018-02-24T05:55:28.944Z,102180.22
2018-02-24T05:57:57.313Z,102188.66
2018-02-24T06:00:25.702Z,102198.84
2018-02-24T06:02:54.078Z,102197.61
2018-02-24T06:05:22.471Z,102197.73
2018-02-24T06:07:50.844Z,102202.98
2018-02-24T06:10:19.233Z,102208.67
2018-02-24T06:12:47.604Z,102209.75
2018-02-24T06:15:15.969Z,102204.50
2018-02-24T06:17:44.348Z,102206.14
2018-02-24T06:20:12.744Z,102207.94
2018-02-24T06:22:41.132Z,102208.01
2018-02-24T06:25:09.512Z,102220.04
2018-02-24T06:27:37.880Z,102217.91
2018-02-24T06:30:06.265Z,102220.03
2018-02-24T06:32:34.641Z,102225.08
2018-02-24T06:35:03.035Z,102218.32
2018-02-24T06:37:31.434Z,102223.36
2018-02-24T06:40:00.228Z,102221.31
2018-02-24T06:42:28.989Z,102230.47
2018-02-24T06:44:57.447Z,102224.57
2018-02-24T06:47:25.831Z,102240.23
2018-02-24T06:49:54.208Z,102236.98
2018-02-24T06:52:22.568Z,102249.12
2018-02-24T06:54:50.937Z,102253.80
2018-02-24T06:57:19.288Z,102255.05
2018-02-24T06:59:49.134Z,102251.42
2018-02-24T07:02:17.517Z,102267.02
2018-02-24T07:04:45.901Z,102273.80
2018-02-24T07:07:14.274Z,102274.13
2018-02-24T07:09:42.651Z,102269.34
2018-02-24T07:12:11.032Z,102279.47
2018-02-24T07:14:39.396Z,102274.88
2018-02-24T07:17:07.744Z,102268.36
2018-02-24T07:19:36.608Z,102270.03
2018-02-24T07:22:04.988Z,102272.33
2018-02-24T07:24:33.352Z,102284.20
2018-02-24T07:27:01.715Z,102280.32
2018-02-24T07:29:30.078Z,102289.73
2018-02-24T07:31:58.434Z,102280.05
2018-02-24T07:34:27.192Z,102284.85
2018-02-24T07:36:55.552Z,102285.76
2018-02-24T07:39:23.916Z,102286.30
2018-02-24T07:41:52.294Z,102300.03
2018-02-24T07:44:20.659Z,102285.44
2018-02-24T07:46:49.043Z,102272.96
2018-02-24T07:49:17.402Z,102267.95
2018-02-24T07:51:45.792Z,102261.92
2018-02-24T07:54:14.169Z,102271.86
2018-02-24T07:56:42.586Z,102259.92
2018-02-24T07:59:10.945Z,102270.99
2018-02-24T08:01:39.344Z,102270.62
2018-02-24T08:04:07.701Z,102266.32
2018-02-24T08:06:36.058Z,102273.94
2018-02-24T08:09:04.417Z,102286.31
2018-02-24T08:11:33.174Z,102274.76
2018-02-24T08:14:01.543Z,102257.11
2018-02-24T08:16:29.906Z,102278.43
2018-02-24T08:18:58.306Z,102280.92
2018-02-24T08:21:26.677Z,102288.75
2018-02-24T08:23:55.035Z,102282.81
2018-02-24T08:26:23.424Z,102289.59
2018-02-24T08:28:51.806Z,102297.31
2018-02-24T08:31:20.192Z,102303.27
2018-02-24T08:33:48.567Z,102303.63
2018-02-24T08:36:16.927Z,102298.95
2018-02-24T08:38:45.304Z,102307.50
2018-02-24T08:41:13.661Z,102305.14
2018-02-24T08:43:42.048Z,102288.70
2018-02-24T08:46:10.498Z,102307.35
2018-02-24T08:48:38.853Z,102301.65
2018-02-24T08:51:07.205Z,102312.70
2018-02-24T08:53:35.578Z,102297.70
2018-02-24T08:56:03.941Z,102303.83
2018-02-24T08:58:32.326Z,102296.88
2018-02-24T09:01:00.693Z,102284.97
2018-02-24T09:03:29.499Z,102299.14
2018-02-24T09:05:57.861Z,102291.19
2018-02-24T09:08:26.673Z,102290.63
2018-02-24T09:10:55.056Z,102302.61
2018-02-24T09:13:23.436Z,102294.53
2018-02-24T09:15:51.802Z,102286.58
2018-02-24T09:18:20.170Z,102289.52
2018-02-24T09:20:48.541Z,102301.13
2018-02-24T09:23:17.396Z,102293.83
2018-02-24T09:25:45.769Z,102291.44
2018-02-24T09:28:14.179Z,102299.03
2018-02-24T09:30:42.930Z,102308.33
2018-02-24T09:33:11.344Z,102316.36
2018-02-24T09:35:40.095Z,102325.51
2018-02-24T09:38:08.473Z,102289.06
2018-02-24T09:40:36.832Z,102299.61
2018-02-24T09:43:05.215Z,102296.47
2018-02-24T09:45:33.590Z,102325.21
2018-02-24T09:48:01.975Z,102306.67
2018-02-24T09:50:30.413Z,102339.34
2018-02-24T09:52:59.270Z,102313.28
2018-02-24T09:55:27.640Z,102307.11
2018-02-24T09:57:56.030Z,102305.08
2018-02-24T10:00:24.407Z,102300.28
2018-02-24T10:02:52.800Z,102305.80
2018-02-24T10:05:21.164Z,102293.56
2018-02-24T10:07:49.563Z,102311.92
2018-02-24T10:10:17.916Z,102299.37
2018-02-24T10:12:46.328Z,102304.36
2018-02-24T10:15:15.273Z,102283.48
2018-02-24T10:17:43.649Z,102304.63
2018-02-24T10:20:12.615Z,102295.78
2018-02-24T10:22:41.444Z,102318.37
2018-02-24T10:25:09.835Z,102314.53
2018-02-24T10:27:38.284Z,102306.16
2018-02-24T10:30:06.685Z,102329.73
2018-02-24T10:32:35.033Z,102299.80
2018-02-24T10:35:03.538Z,102309.92
2018-02-24T10:37:31.918Z,102311.89
2018-02-24T10:40:00.304Z,102328.66
2018-02-24T10:42:28.676Z,102320.02
2018-02-24T10:44:57.133Z,102341.76
2018-02-24T10:47:25.472Z,102327.45
2018-02-24T10:49:54.320Z,102322.18
2018-02-24T10:52:22.701Z,102321.03
2018-02-24T10:54:51.197Z,102341.41
2018-02-24T10:57:19.538Z,102321.25
2018-02-24T10:59:47.898Z,102309.84
2018-02-24T11:02:16.728Z,102311.67
2018-02-24T11:04:45.129Z,102314.03
2018-02-24T11:07:13.462Z,102310.28
2018-02-24T11:09:41.973Z,102311.71
2018-02-24T11:12:10.351Z,102307.97
2018-02-24T11:14:38.734Z,102314.25
2018-02-24T11:17:07.126Z,102324.14
2018-02-24T11:19:35.475Z,102301.19
2018-02-24T11:22:03.868Z,102314.34
2018-02-24T11:24:32.262Z,102300.04
2018-02-24T11:27:00.614Z,102317.11
2018-02-24T11:29:28.976Z,102298.53
2018-02-24T11:31:57.320Z,102286.40
2018-02-24T11:34:26.085Z,102311.86
2018-02-24T11:36:54.481Z,102302.27
2018-02-24T11:39:28.751Z,102307.84
2018-02-24T11:41:57.448Z,102297.27
2018-02-24T11:44:25.829Z,102297.75
2018-02-24T11:46:54.221Z,102300.25
2018-02-24T11:49:22.597Z,102301.71
2018-02-24T11:51:50.988Z,102318.50
2018-02-24T11:54:19.340Z,102301.03
2018-02-24T11:56:47.709Z,102313.84
2018-02-24T11:59:16.085Z,102299.91
2018-02-24T12:01:44.452Z,102298.95
2018-02-24T12:04:12.824Z,102291.66
2018-02-24T12:06:41.211Z,102302.34
2018-02-24T12:09:09.577Z,102313.58
2018-02-24T12:11:38.161Z,102288.95
2018-02-24T12:14:06.525Z,102290.14
2018-02-24T12:16:35.273Z,102298.41
2018-02-24T12:19:03.637Z,102306.81
2018-02-24T12:21:32.125Z,102312.97
2018-02-24T12:24:00.486Z,102287.58
2018-02-24T12:26:28.847Z,102303.25
2018-02-24T12:28:57.206Z,102300.11
2018-02-24T12:31:26.072Z,102297.55
2018-02-24T12:33:54.504Z,102306.09
2018-02-24T12:36:22.917Z,102329.98
2018-02-24T12:38:51.398Z,102318.41
2018-02-24T12:41:19.749Z,102321.72
2018-02-24T12:43:48.148Z,102316.19
2018-02-24T12:46:16.503Z,102322.41
2018-02-24T12:48:44.876Z,102314.30
2018-02-24T12:51:13.285Z,102307.95
2018-02-24T12:53:41.649Z,102294.40
2018-02-24T12:56:10.059Z,102310.23
2018-02-24T12:58:38.438Z,102321.11
2018-02-24T13:01:06.788Z,102308.61
2018-02-24T13:03:35.166Z,102340.09
2018-02-24T13:06:03.565Z,102297.98
2018-02-24T13:08:32.033Z,102306.42
2018-02-24T13:11:00.391Z,102311.86
2018-02-24T13:13:28.900Z,102349.34
2018-02-24T13:15:57.256Z,102313.59
2018-02-24T13:18:25.620Z,102303.12
2018-02-24T13:20:54.067Z,102314.72
2018-02-24T13:23:22.631Z,102320.28
2018-02-24T13:25:51.003Z,102315.38
2018-02-24T13:28:19.364Z,102301.76
2018-02-24T13:30:47.708Z,102303.59
2018-02-24T13:33:16.108Z,102324.45
2018-02-24T13:35:44.457Z,102321.21
2018-02-24T13:38:13.215Z,102319.56
2018-02-24T13:40:41.576Z,102312.94
2018-02-24T13:43:09.940Z,102331.61
2018-02-24T13:45:38.349Z,102334.59
2018-02-24T13:48:06.723Z,102335.92
2018-02-24T13:50:35.098Z,102346.42
2018-02-24T13:53:03.484Z,102336.98
2018-02-24T13:55:31.832Z,102349.44
2018-02-24T13:58:00.204Z,102336.70
2018-02-24T14:00:28.677Z,102335.36
2018-02-24T14:02:57.096Z,102335.84
2018-02-24T14:05:25.453Z,102329.96
2018-02-24T14:07:53.832Z,102323.34
2018-02-24T14:10:22.205Z,102320.98
2018-02-24T14:12:50.612Z,102345.19
2018-02-24T14:15:18.964Z,102344.60
2018-02-24T14:17:47.330Z,102323.47
2018-02-24T14:20:15.748Z,102336.02
2018-02-24T14:22:44.100Z,102339.61
2018-02-24T14:25:12.588Z,102330.88
2018-02-24T14:27:41.001Z,102338.57
2018-02-24T14:30:09.786Z,102328.37
2018-02-24T14:32:38.138Z,102329.77
2018-02-24T14:35:06.505Z,102340.97
2018-02-24T14:37:34.867Z,102340.47
2018-02-24T14:40:03.230Z,102346.44
2018-02-24T14:42:31.971Z,102327.06
2018-02-24T14:45:00.337Z,102335.70
2018-02-24T14:47:28.695Z,102344.28
2018-02-24T14:49:57.065Z,102350.50
2018-02-24T14:52:25.476Z,102350.09
2018-02-24T14:54:53.862Z,102350.21
2018-02-24T14:57:22.246Z,102343.26
2018-02-24T14:59:50.596Z,102345.66
2018-02-24T15:02:19.010Z,102335.77
2018-02-24T15:04:47.383Z,102351.17
2018-02-24T15:07:15.749Z,102340.13
2018-02-24T15:09:44.106Z,102345.52
2018-02-24T15:12:12.470Z,102347.53
2018-02-24T15:14:40.868Z,102349.07
2018-02-24T15:17:09.285Z,102340.58
2018-02-24T15:19:37.596Z,102352.01
2018-02-24T15:22:06.344Z,102346.00
2018-02-24T15:24:34.701Z,102347.45
2018-02-24T15:27:03.058Z,102360.93
2018-02-24T15:29:31.511Z,102371.08
2018-02-24T15:32:00.360Z,102361.43
2018-02-24T15:34:28.777Z,102356.48
2018-02-24T15:36:57.149Z,102367.86
2018-02-24T15:39:25.557Z,102359.13
2018-02-24T15:41:53.917Z,102356.09
2018-02-24T15:44:22.730Z,102369.61
2018-02-24T15:46:51.103Z,102371.76
2018-02-24T15:49:19.460Z,102382.46
2018-02-24T15:51:48.328Z,102385.09
2018-02-24T15:54:18.337Z,102379.34
2018-02-24T15:56:46.693Z,102380.83
2018-02-24T15:59:15.178Z,102379.88
2018-02-24T16:01:43.591Z,102372.83
2018-02-24T16:04:11.955Z,102382.67
2018-02-24T16:06:40.330Z,102356.63
2018-02-24T16:09:08.726Z,102375.87
2018-02-24T16:11:37.268Z,102390.18
2018-02-24T16:14:05.623Z,102383.98
2018-02-24T16:16:34.382Z,102382.28
2018-02-24T16:19:03.258Z,102386.84
2018-02-24T16:21:31.638Z,102393.63
2018-02-24T16:23:59.995Z,102396.97
2018-02-24T16:26:28.393Z,102395.73
2018-02-24T16:28:56.757Z,102405.17
2018-02-24T16:31:25.124Z,102396.73
2018-02-24T16:33:53.501Z,102407.75
2018-02-24T16:36:21.864Z,102399.52
2018-02-24T16:38:50.214Z,102406.85
2018-02-24T16:41:18.985Z,102409.54
2018-02-24T16:43:47.422Z,102413.88
2018-02-24T16:46:15.780Z,102423.15
2018-02-24T16:48:44.193Z,102425.80
2018-02-24T16:51:12.557Z,102419.71
2018-02-24T16:53:40.937Z,102427.66
2018-02-24T16:56:09.413Z,102430.47
2018-02-24T16:58:37.816Z,102428.28
2018-02-24T17:01:06.208Z,102431.03
2018-02-24T17:03:34.576Z,102435.95
2018-02-24T17:06:02.966Z,102444.47
2018-02-24T17:08:31.448Z,102447.71
2018-02-24T17:10:59.799Z,102444.30
2018-02-24T17:16:02.824Z,102454.61
2018-02-24T17:18:31.172Z,102444.63
2018-02-24T17:20:59.585Z,102459.56
2018-02-24T17:23:28.014Z,102459.72
2018-02-24T17:25:56.860Z,102461.79
2018-02-24T17:28:25.221Z,102484.81
2018-02-24T17:33:40.746Z,102463.51
2018-02-24T17:36:09.269Z,102474.39
2018-02-24T17:38:37.629Z,102471.08
2018-02-24T17:41:06.489Z,102488.60
2018-02-24T17:43:34.908Z,102474.98
2018-02-24T17:46:03.338Z,102477.80
2018-02-24T17:48:31.693Z,102481.72
2018-02-24T17:51:00.067Z,102491.27
2018-02-24T17:53:28.492Z,102470.73
2018-02-24T17:55:56.864Z,102472.35
2018-02-24T17:58:25.222Z,102488.34
2018-02-24T18:00:53.629Z,102479.06
2018-02-24T18:03:22.085Z,102477.09
2018-02-24T18:05:50.480Z,102482.34
2018-02-24T18:08:18.854Z,102476.38
2018-02-24T18:10:47.211Z,102477.73
2018-02-24T18:13:15.648Z,102477.86
2018-02-24T18:15:44.496Z,102484.99
2018-02-24T18:18:12.876Z,102479.39
2018-02-24T18:20:41.286Z,102477.89
2018-02-24T18:23:09.740Z,102479.69
2018-02-24T18:25:38.200Z,102471.67
2018-02-24T18:28:06.597Z,102471.84
2018-02-24T18:30:34.981Z,102475.59
2018-02-24T18:33:03.345Z,102473.85
2018-02-24T18:35:31.714Z,102476.09
2018-02-24T18:38:00.077Z,102485.91
2018-02-24T18:40:28.428Z,102481.56
2018-02-24T18:42:57.407Z,102488.60
2018-02-24T18:45:25.769Z,102485.89
2018-02-24T18:47:54.181Z,102493.58
2018-02-24T18:50:23.031Z,102492.58
2018-02-24T18:52:51.513Z,102504.12
2018-02-24T18:55:19.874Z,102502.05
2018-02-24T18:57:48.266Z,102506.91
2018-02-24T19:00:16.717Z,102503.17
2018-02-24T19:02:45.085Z,102515.92
2018-02-24T19:05:13.466Z,102499.27
2018-02-24T19:07:41.836Z,102512.84
2018-02-24T19:10:10.576Z,102516.60
2018-02-24T19:12:38.966Z,102516.05
2018-02-24T19:15:07.346Z,102521.78
2018-02-24T19:17:35.708Z,102527.89
2018-02-24T19:20:04.065Z,102524.04
2018-02-24T19:22:32.429Z,102528.86
2018-02-24T19:25:00.835Z,102532.93
2018-02-24T19:27:29.204Z,102529.32
2018-02-24T19:29:57.556Z,102527.09
2018-02-24T19:32:26.317Z,102521.59
2018-02-24T19:34:54.798Z,102524.20
2018-02-24T19:37:23.268Z,102524.94
2018-02-24T19:39:51.626Z,102534.34
2018-02-24T19:42:19.988Z,102523.65
2018-02-24T19:44:48.388Z,102534.84
2018-02-24T19:47:16.745Z,102530.50
2018-02-24T19:49:45.097Z,102527.88
2018-02-24T19:52:13.704Z,102526.14
2018-02-24T19:54:42.061Z,102540.39
2018-02-24T19:57:10.429Z,102538.93
2018-02-24T19:59:39.180Z,102530.39
2018-02-24T20:02:07.685Z,102533.55
2018-02-24T20:04:36.137Z,102536.41
2018-02-24T20:07:04.508Z,102529.45
2018-02-24T20:09:33.014Z,102530.87
2018-02-24T20:12:01.441Z,102548.47
2018-02-24T20:14:29.871Z,102548.31
2018-02-24T20:16:59.036Z,102539.80
2018-02-24T20:19:27.384Z,102545.09
2018-02-24T20:21:55.748Z,102541.41
2018-02-24T20:24:24.597Z,102543.34
2018-02-24T20:26:53.105Z,102544.20
2018-02-24T20:29:21.721Z,102553.80
2018-02-24T20:31:50.149Z,102547.66
2018-02-24T20:34:18.509Z,102551.67
2018-02-24T20:36:46.916Z,102551.55
2018-02-24T20:39:15.269Z,102553.70
2018-02-24T20:41:43.633Z,102558.02
2018-02-24T20:44:11.984Z,102563.09
2018-02-24T20:46:40.774Z,102558.69
2018-02-24T20:49:09.525Z,102554.24
2018-02-24T20:51:37.955Z,102554.34
2018-02-24T20:54:06.381Z,102554.21
2018-02-24T20:56:34.736Z,102566.95
2018-02-24T20:59:03.125Z,102567.78
2018-02-24T21:01:31.485Z,102555.02
2018-02-24T21:03:59.967Z,102564.41
2018-02-24T21:06:28.368Z,102572.17
2018-02-24T21:08:56.729Z,102572.86
2018-02-24T21:11:25.205Z,102575.83
2018-02-24T21:13:53.597Z,102585.26
2018-02-24T21:16:21.986Z,102568.55
2018-02-24T21:18:50.357Z,102574.02
2018-02-24T21:21:18.737Z,102585.92
2018-02-24T21:23:47.106Z,102587.72
2018-02-24T21:26:15.504Z,102585.95
2018-02-24T21:28:43.864Z,102580.91
2018-02-24T21:31:12.271Z,102586.50
2018-02-24T21:33:40.629Z,102584.71
2018-02-24T21:36:09.281Z,102587.72
2018-02-24T21:38:37.690Z,102592.64
2018-02-24T21:41:06.097Z,102586.13
2018-02-24T21:43:34.452Z,102588.56
2018-02-24T21:46:02.825Z,102592.28
2018-02-24T21:48:31.170Z,102594.97
2018-02-24T21:50:59.924Z,102604.73
2018-02-24T21:53:28.328Z,102604.09
2018-02-24T21:55:56.779Z,102605.94
2018-02-24T21:58:25.141Z,102605.96
2018-02-24T22:00:53.514Z,102608.72
2018-02-24T22:03:21.907Z,102607.64
2018-02-24T22:05:51.105Z,102628.50
2018-02-24T22:08:19.588Z,102613.73
2018-02-24T22:10:47.981Z,102613.36
2018-02-24T22:13:16.764Z,102616.74
2018-02-24T22:15:45.334Z,102616.92
2018-02-24T22:18:13.711Z,102611.42
2018-02-24T22:20:42.117Z,102621.28
2018-02-24T22:23:10.517Z,102624.58
2018-02-24T22:25:38.896Z,102631.23
2018-02-24T22:28:07.901Z,102640.16
2018-02-24T22:30:36.305Z,102623.08
2018-02-24T22:33:04.673Z,102627.72
2018-02-24T22:35:33.064Z,102631.09
2018-02-24T22:38:01.480Z,102635.38
2018-02-24T22:40:29.940Z,102638.09
2018-02-24T22:42:58.468Z,102637.55
2018-02-24T22:45:27.320Z,102631.00
2018-02-24T22:48:01.024Z,102635.05
2018-02-24T22:50:29.496Z,102630.28
2018-02-24T22:52:58.401Z,102636.91
2018-02-24T22:55:26.765Z,102642.11
2018-02-24T22:57:55.249Z,102644.44
2018-02-24T23:00:29.442Z,102643.98
2018-02-24T23:02:57.800Z,102649.22
2018-02-24T23:05:26.188Z,102645.19
2018-02-24T23:07:54.580Z,102645.13
2018-02-24T23:10:22.974Z,102654.61
2018-02-24T23:12:51.356Z,102649.42
2018-02-24T23:15:19.836Z,102650.08
2018-02-24T23:17:48.213Z,102648.14
2018-02-24T23:20:16.597Z,102648.92
2018-02-24T23:22:44.956Z,102645.21
2018-02-24T23:25:13.457Z,102649.94
2018-02-24T23:27:41.944Z,102636.13
2018-02-24T23:30:10.433Z,102636.54
2018-02-24T23:32:39.214Z,102642.23
2018-02-24T23:35:07.609Z,102636.71
2018-02-24T23:37:36.470Z,102638.91
2018-02-24T23:40:04.864Z,102637.34
2018-02-24T23:42:33.249Z,102646.55
2018-02-24T23:45:01.708Z,102638.07
2018-02-24T23:47:30.088Z,102636.03
2018-02-24T23:49:58.468Z,102637.31
2018-02-24T23:52:26.849Z,102639.83
2018-02-24T23:54:55.333Z,102641.07
2018-02-24T23:57:23.828Z,102643.64
2018-02-24T23:59:52.620Z,102631.20
